createdAt,value
2023-03-19T00:00:29.940Z,9.13
2023-03-19T00:01:29.946Z,9.15
2023-03-19T00:02:29.969Z,9.16
2023-03-19T00:03:29.929Z,9.16
2023-03-19T00:04:29.893Z,9.17
2023-03-19T00:05:29.884Z,9.19
2023-03-19T00:06:29.901Z,9.17
2023-03-19T00:07:29.857Z,9.19
2023-03-19T00:08:29.854Z,9.23
2023-03-19T00:09:29.837Z,9.23
2023-03-19T00:10:29.834Z,9.23
2023-03-19T00:11:29.845Z,9.22
2023-03-19T00:12:29.807Z,9.24
2023-03-19T00:13:29.793Z,9.22
2023-03-19T00:14:29.792Z,9.22
2023-03-19T00:15:29.775Z,9.23
2023-03-19T00:16:29.860Z,9.24
2023-03-19T00:17:29.744Z,9.24
2023-03-19T00:18:29.744Z,9.24
2023-03-19T00:19:29.726Z,9.24
2023-03-19T00:20:29.728Z,9.22
2023-03-19T00:21:30.750Z,9.22
2023-03-19T00:22:29.708Z,9.22
2023-03-19T00:23:29.685Z,9.22
2023-03-19T00:24:29.671Z,9.22
2023-03-19T00:25:29.664Z,9.22
2023-03-19T00:26:29.667Z,9.20
2023-03-19T00:27:29.641Z,9.22
2023-03-19T00:28:29.623Z,9.22
2023-03-19T00:29:29.617Z,9.22
2023-03-19T00:30:29.644Z,9.23
2023-03-19T00:31:29.626Z,9.23
2023-03-19T00:32:29.743Z,9.23
2023-03-19T00:33:29.584Z,9.23
2023-03-19T00:34:29.559Z,9.24
2023-03-19T00:35:29.549Z,9.26
2023-03-19T00:36:29.557Z,9.24
2023-03-19T00:37:29.545Z,9.24
2023-03-19T00:38:29.516Z,9.26
2023-03-19T00:39:29.534Z,9.24
2023-03-19T00:40:29.514Z,9.24
2023-03-19T00:41:29.508Z,9.19
2023-03-19T00:42:29.480Z,9.17
2023-03-19T00:43:29.467Z,9.23
2023-03-19T00:44:29.457Z,9.26
2023-03-19T00:45:29.450Z,9.26
2023-03-19T00:46:29.510Z,9.27
2023-03-19T00:47:29.429Z,9.27
2023-03-19T00:48:29.420Z,9.27
2023-03-19T00:49:29.403Z,9.30
2023-03-19T00:50:29.376Z,9.30
2023-03-19T00:51:29.395Z,9.26
2023-03-19T00:52:29.362Z,9.24
2023-03-19T00:53:29.348Z,9.23
2023-03-19T00:54:29.331Z,9.22
2023-03-19T00:55:29.343Z,9.24
2023-03-19T00:56:29.330Z,9.24
2023-03-19T00:57:29.337Z,9.26
2023-03-19T00:58:29.293Z,9.24
2023-03-19T00:59:29.298Z,9.23
2023-03-19T01:00:29.269Z,9.23
2023-03-19T01:01:29.349Z,9.23
2023-03-19T01:02:29.250Z,9.23
2023-03-19T01:03:29.237Z,9.24
2023-03-19T01:04:29.253Z,9.24
2023-03-19T01:05:29.213Z,9.27
2023-03-19T01:06:29.210Z,9.32
2023-03-19T01:07:29.216Z,9.34
2023-03-19T01:08:29.176Z,9.38
2023-03-19T01:09:29.165Z,9.42
2023-03-19T01:10:29.168Z,9.45
2023-03-19T01:11:29.145Z,9.52
2023-03-19T01:12:29.155Z,9.55
2023-03-19T01:13:29.119Z,9.55
2023-03-19T01:14:29.107Z,9.56
2023-03-19T01:15:29.104Z,9.55
2023-03-19T01:16:29.088Z,9.58
2023-03-19T01:17:29.100Z,9.60
2023-03-19T01:18:29.065Z,9.59
2023-03-19T01:19:29.054Z,9.60
2023-03-19T01:20:29.049Z,9.63
2023-03-19T01:21:29.053Z,9.65
2023-03-19T01:22:29.041Z,9.63
2023-03-19T01:23:29.012Z,9.63
2023-03-19T01:24:29.007Z,9.62
2023-03-19T01:25:28.991Z,9.58
2023-03-19T01:26:28.988Z,9.60
2023-03-19T01:27:28.986Z,9.63
2023-03-19T01:28:28.955Z,9.65
2023-03-19T01:29:28.962Z,9.65
2023-03-19T01:30:28.932Z,9.62
2023-03-19T01:31:29.064Z,9.59
2023-03-19T01:32:28.923Z,9.63
2023-03-19T01:33:28.899Z,9.65
2023-03-19T01:34:28.884Z,9.68
2023-03-19T01:35:28.886Z,9.70
2023-03-19T01:36:28.860Z,9.73
2023-03-19T01:37:28.873Z,9.70
2023-03-19T01:38:28.837Z,9.67
2023-03-19T01:39:28.825Z,9.65
2023-03-19T01:40:28.809Z,9.65
2023-03-19T01:41:28.806Z,9.67
2023-03-19T01:42:28.815Z,9.65
2023-03-19T01:43:28.787Z,9.65
2023-03-19T01:44:28.768Z,9.60
2023-03-19T01:45:28.764Z,9.62
2023-03-19T01:46:28.851Z,9.62
2023-03-19T01:47:28.757Z,9.62
2023-03-19T01:48:28.730Z,9.63
2023-03-19T01:49:28.720Z,9.60
2023-03-19T01:50:28.708Z,9.62
2023-03-19T01:51:28.692Z,9.62
2023-03-19T01:52:28.702Z,9.63
2023-03-19T01:53:28.678Z,9.63
2023-03-19T01:54:28.664Z,9.63
2023-03-19T01:55:28.650Z,9.63
2023-03-19T01:56:28.637Z,9.62
2023-03-19T01:57:28.656Z,9.60
2023-03-19T01:58:28.640Z,9.59
2023-03-19T01:59:28.607Z,9.62
2023-03-19T02:00:28.605Z,9.63
2023-03-19T02:01:28.590Z,9.62
2023-03-19T02:02:28.577Z,9.63
2023-03-19T02:03:28.582Z,9.63
2023-03-19T02:04:28.580Z,9.63
2023-03-19T02:05:28.536Z,9.63
2023-03-19T02:06:28.522Z,9.63
2023-03-19T02:07:28.518Z,9.60
2023-03-19T02:08:28.533Z,9.59
2023-03-19T02:09:28.497Z,9.58
2023-03-19T02:10:28.476Z,9.56
2023-03-19T02:11:28.483Z,9.56
2023-03-19T02:12:28.457Z,9.56
2023-03-19T02:13:28.545Z,9.55
2023-03-19T02:14:28.482Z,9.55
2023-03-19T02:15:28.428Z,9.55
2023-03-19T02:16:28.445Z,9.55
2023-03-19T02:17:28.402Z,9.49
2023-03-19T02:18:28.401Z,9.44
2023-03-19T02:19:28.402Z,9.41
2023-03-19T02:20:28.366Z,9.44
2023-03-19T02:21:28.366Z,9.44
2023-03-19T02:22:28.344Z,9.44
2023-03-19T02:23:28.339Z,9.45
2023-03-19T02:24:28.349Z,9.42
2023-03-19T02:25:28.310Z,9.44
2023-03-19T02:26:28.315Z,9.44
2023-03-19T02:27:28.288Z,9.42
2023-03-19T02:28:28.278Z,9.42
2023-03-19T02:29:28.278Z,9.44
2023-03-19T02:30:28.280Z,9.41
2023-03-19T02:31:28.344Z,9.41
2023-03-19T02:32:28.235Z,9.41
2023-03-19T02:33:28.225Z,9.42
2023-03-19T02:34:28.209Z,9.41
2023-03-19T02:35:28.200Z,9.42
2023-03-19T02:36:28.205Z,9.44
2023-03-19T02:37:28.191Z,9.42
2023-03-19T02:38:28.175Z,9.44
2023-03-19T02:39:28.153Z,9.44
2023-03-19T02:40:28.145Z,9.42
2023-03-19T02:41:28.162Z,9.42
2023-03-19T02:42:28.121Z,9.42
2023-03-19T02:43:28.125Z,9.44
2023-03-19T02:44:28.101Z,9.44
2023-03-19T02:45:28.089Z,9.42
2023-03-19T02:46:28.150Z,9.48
2023-03-19T02:47:28.092Z,9.45
2023-03-19T02:48:28.056Z,9.48
2023-03-19T02:49:28.045Z,9.48
2023-03-19T02:50:28.031Z,9.45
2023-03-19T02:51:28.029Z,9.48
2023-03-19T02:52:28.306Z,9.48
2023-03-19T02:53:27.999Z,9.48
2023-03-19T02:54:27.987Z,9.45
2023-03-19T02:55:27.978Z,9.45
2023-03-19T02:56:27.961Z,9.45
2023-03-19T02:57:27.955Z,9.44
2023-03-19T02:58:27.959Z,9.44
2023-03-19T02:59:27.929Z,9.42
2023-03-19T03:00:27.970Z,9.42
2023-03-19T03:01:27.918Z,9.42
2023-03-19T03:02:27.945Z,9.42
2023-03-19T03:03:27.899Z,9.41
2023-03-19T03:04:27.911Z,9.41
2023-03-19T03:05:27.871Z,9.40
2023-03-19T03:06:27.862Z,9.40
2023-03-19T03:07:27.853Z,9.40
2023-03-19T03:08:27.835Z,9.38
2023-03-19T03:09:27.825Z,9.37
2023-03-19T03:10:27.832Z,9.37
2023-03-19T03:11:27.804Z,9.34
2023-03-19T03:12:27.786Z,9.34
2023-03-19T03:13:27.796Z,9.31
2023-03-19T03:14:27.764Z,9.27
2023-03-19T03:15:27.784Z,9.26
2023-03-19T03:16:27.814Z,9.26
2023-03-19T03:17:27.741Z,9.24
2023-03-19T03:18:27.738Z,9.23
2023-03-19T03:19:27.714Z,9.24
2023-03-19T03:20:27.733Z,9.23
2023-03-19T03:21:27.726Z,9.22
2023-03-19T03:22:27.687Z,9.22
2023-03-19T03:23:27.702Z,9.19
2023-03-19T03:24:27.660Z,9.17
2023-03-19T03:25:27.661Z,9.15
2023-03-19T03:26:27.641Z,9.12
2023-03-19T03:27:27.647Z,9.08
2023-03-19T03:28:27.636Z,9.06
2023-03-19T03:29:27.608Z,9.06
2023-03-19T03:30:27.613Z,9.04
2023-03-19T03:31:27.661Z,9.04
2023-03-19T03:32:27.612Z,9.03
2023-03-19T03:33:27.568Z,9.03
2023-03-19T03:34:27.567Z,9.01
2023-03-19T03:35:27.605Z,9.00
2023-03-19T03:36:27.541Z,8.98
2023-03-19T03:37:27.518Z,8.98
2023-03-19T03:38:27.539Z,8.96
2023-03-19T03:39:27.501Z,8.97
2023-03-19T03:40:27.503Z,8.98
2023-03-19T03:41:27.473Z,9.00
2023-03-19T03:42:27.463Z,9.03
2023-03-19T03:43:27.455Z,9.03
2023-03-19T03:44:27.471Z,9.03
2023-03-19T03:45:27.430Z,9.04
2023-03-19T03:46:27.424Z,9.04
2023-03-19T03:47:27.408Z,9.04
2023-03-19T03:48:27.396Z,9.04
2023-03-19T03:49:27.414Z,9.04
2023-03-19T03:50:27.384Z,9.06
2023-03-19T03:51:27.360Z,9.04
2023-03-19T03:52:27.355Z,9.08
2023-03-19T03:53:27.347Z,9.06
2023-03-19T03:54:27.332Z,9.10
2023-03-19T03:55:27.763Z,9.10
2023-03-19T03:56:27.311Z,9.13
2023-03-19T03:57:27.290Z,9.13
2023-03-19T03:58:27.288Z,9.16
2023-03-19T03:59:27.271Z,9.17
2023-03-19T04:00:27.263Z,9.19
2023-03-19T04:01:27.279Z,9.20
2023-03-19T04:02:27.257Z,9.23
2023-03-19T04:03:27.296Z,9.24
2023-03-19T04:04:27.215Z,9.24
2023-03-19T04:05:27.212Z,9.26
2023-03-19T04:06:27.251Z,9.27
2023-03-19T04:07:27.188Z,9.30
2023-03-19T04:08:27.176Z,9.30
2023-03-19T04:09:27.167Z,9.30
2023-03-19T04:10:27.161Z,9.31
2023-03-19T04:11:27.140Z,9.31
2023-03-19T04:12:27.170Z,9.32
2023-03-19T04:13:27.110Z,9.34
2023-03-19T04:14:27.103Z,9.35
2023-03-19T04:15:27.098Z,9.37
2023-03-19T04:16:27.153Z,9.37
2023-03-19T04:17:27.114Z,9.38
2023-03-19T04:18:27.070Z,9.40
2023-03-19T04:19:27.073Z,9.41
2023-03-19T04:20:27.046Z,9.42
2023-03-19T04:21:27.025Z,9.42
2023-03-19T04:22:27.049Z,9.45
2023-03-19T04:23:27.006Z,9.45
2023-03-19T04:24:26.996Z,9.45
2023-03-19T04:25:26.996Z,9.48
2023-03-19T04:26:26.975Z,9.49
2023-03-19T04:27:26.979Z,9.45
2023-03-19T04:28:26.977Z,9.45
2023-03-19T04:29:26.936Z,9.44
2023-03-19T04:30:26.953Z,9.42
2023-03-19T04:31:27.123Z,9.45
2023-03-19T04:32:26.904Z,9.45
2023-03-19T04:33:26.914Z,9.48
2023-03-19T04:34:26.918Z,9.48
2023-03-19T04:35:26.901Z,9.48
2023-03-19T04:36:26.871Z,9.48
2023-03-19T04:37:26.851Z,9.48
2023-03-19T04:38:26.835Z,9.49
2023-03-19T04:39:26.866Z,9.49
2023-03-19T04:40:26.811Z,9.48
2023-03-19T04:41:26.804Z,9.44
2023-03-19T04:42:26.791Z,9.42
2023-03-19T04:43:26.781Z,9.42
2023-03-19T04:44:26.767Z,9.42
2023-03-19T04:45:26.785Z,9.42
2023-03-19T04:46:26.795Z,9.44
2023-03-19T04:47:26.738Z,9.45
2023-03-19T04:48:26.732Z,9.42
2023-03-19T04:49:26.733Z,9.42
2023-03-19T04:50:26.728Z,9.44
2023-03-19T04:51:26.706Z,9.44
2023-03-19T04:52:26.682Z,9.44
2023-03-19T04:53:26.669Z,9.40
2023-03-19T04:54:26.661Z,9.35
2023-03-19T04:55:26.660Z,9.34
2023-03-19T04:56:27.015Z,9.35
2023-03-19T04:57:26.628Z,9.34
2023-03-19T04:58:26.609Z,9.34
2023-03-19T04:59:26.605Z,9.34
2023-03-19T05:00:26.601Z,9.32
2023-03-19T05:01:26.594Z,9.32
2023-03-19T05:02:26.588Z,9.31
2023-03-19T05:03:26.616Z,9.32
2023-03-19T05:04:26.541Z,9.31
2023-03-19T05:05:26.535Z,9.32
2023-03-19T05:06:26.527Z,9.31
2023-03-19T05:07:26.535Z,9.31
2023-03-19T05:08:26.502Z,9.32
2023-03-19T05:09:26.498Z,9.30
2023-03-19T05:10:26.504Z,9.31
2023-03-19T05:11:26.473Z,9.30
2023-03-19T05:12:26.493Z,9.31
2023-03-19T05:13:26.452Z,9.30
2023-03-19T05:14:26.443Z,9.31
2023-03-19T05:15:26.425Z,9.30
2023-03-19T05:16:26.411Z,9.27
2023-03-19T05:17:26.401Z,9.27
2023-03-19T05:18:26.432Z,9.26
2023-03-19T05:19:26.404Z,9.24
2023-03-19T05:20:26.363Z,9.26
2023-03-19T05:21:26.361Z,9.24
2023-03-19T05:22:26.350Z,9.26
2023-03-19T05:23:26.338Z,9.26
2023-03-19T05:24:26.347Z,9.24
2023-03-19T05:25:26.318Z,9.23
2023-03-19T05:26:26.326Z,9.23
2023-03-19T05:27:26.296Z,9.24
2023-03-19T05:28:26.278Z,9.26
2023-03-19T05:29:26.274Z,9.24
2023-03-19T05:30:26.281Z,9.24
2023-03-19T05:31:26.324Z,9.23
2023-03-19T05:32:26.238Z,9.23
2023-03-19T05:33:26.224Z,9.24
2023-03-19T05:34:26.214Z,9.26
2023-03-19T05:35:26.261Z,9.24
2023-03-19T05:36:26.191Z,9.30
2023-03-19T05:37:26.185Z,9.30
2023-03-19T05:38:26.162Z,9.27
2023-03-19T05:39:26.154Z,9.26
2023-03-19T05:40:26.173Z,9.26
2023-03-19T05:41:26.136Z,9.26
2023-03-19T05:42:26.118Z,9.26
2023-03-19T05:43:26.118Z,9.26
2023-03-19T05:44:26.100Z,9.27
2023-03-19T05:45:26.087Z,9.30
2023-03-19T05:46:26.140Z,9.31
2023-03-19T05:47:26.068Z,9.31
2023-03-19T05:48:26.071Z,9.32
2023-03-19T05:49:26.068Z,9.31
2023-03-19T05:50:26.031Z,9.30
2023-03-19T05:51:26.034Z,9.27
2023-03-19T05:52:26.034Z,9.30
2023-03-19T05:53:26.002Z,9.27
2023-03-19T05:54:25.983Z,9.27
2023-03-19T05:55:25.987Z,9.27
2023-03-19T05:56:25.966Z,9.30
2023-03-19T05:57:25.952Z,9.31
2023-03-19T05:58:25.969Z,9.32
2023-03-19T05:59:25.969Z,9.31
2023-03-19T06:00:25.916Z,9.32
2023-03-19T06:01:25.954Z,9.32
2023-03-19T06:02:25.959Z,9.34
2023-03-19T06:03:25.915Z,9.34
2023-03-19T06:04:25.994Z,9.37
2023-03-19T06:05:25.870Z,9.37
2023-03-19T06:06:25.853Z,9.38
2023-03-19T06:07:25.845Z,9.37
2023-03-19T06:08:25.861Z,9.38
2023-03-19T06:09:25.824Z,9.37
2023-03-19T06:10:25.833Z,9.38
2023-03-19T06:11:25.804Z,9.40
2023-03-19T06:12:25.811Z,9.38
2023-03-19T06:13:25.856Z,9.41
2023-03-19T06:14:25.938Z,9.38
2023-03-19T06:15:25.754Z,9.41
2023-03-19T06:16:25.767Z,9.42
2023-03-19T06:17:25.774Z,9.42
2023-03-19T06:18:25.717Z,9.44
2023-03-19T06:19:25.734Z,9.44
2023-03-19T06:20:25.697Z,9.45
2023-03-19T06:21:25.702Z,9.48
2023-03-19T06:22:25.717Z,9.50
2023-03-19T06:23:25.662Z,9.53
2023-03-19T06:24:25.668Z,9.55
2023-03-19T06:25:25.639Z,9.56
2023-03-19T06:26:25.626Z,9.58
2023-03-19T06:27:25.622Z,9.62
2023-03-19T06:28:25.605Z,9.65
2023-03-19T06:29:25.619Z,9.68
2023-03-19T06:30:25.608Z,9.68
2023-03-19T06:31:25.600Z,9.71
2023-03-19T06:32:25.564Z,9.73
2023-03-19T06:33:25.558Z,9.71
2023-03-19T06:34:25.587Z,9.75
2023-03-19T06:35:25.594Z,9.81
2023-03-19T06:36:25.515Z,9.86
2023-03-19T06:37:25.548Z,9.88
2023-03-19T06:38:25.497Z,9.89
2023-03-19T06:39:25.511Z,9.86
2023-03-19T06:40:25.479Z,9.89
2023-03-19T06:41:25.477Z,9.85
2023-03-19T06:42:25.491Z,9.88
2023-03-19T06:43:25.451Z,9.91
2023-03-19T06:44:25.488Z,9.88
2023-03-19T06:45:25.423Z,9.92
2023-03-19T06:46:25.414Z,9.98
2023-03-19T06:47:25.405Z,10.06
2023-03-19T06:48:25.406Z,10.11
2023-03-19T06:49:25.381Z,10.16
2023-03-19T06:50:25.360Z,10.18
2023-03-19T06:51:25.356Z,10.24
2023-03-19T06:52:25.358Z,10.32
2023-03-19T06:53:25.358Z,10.35
2023-03-19T06:54:25.319Z,10.35
2023-03-19T06:55:25.332Z,10.42
2023-03-19T06:56:25.297Z,10.44
2023-03-19T06:57:25.306Z,10.46
2023-03-19T06:58:25.328Z,10.44
2023-03-19T06:59:25.274Z,10.47
2023-03-19T07:00:25.257Z,10.52
2023-03-19T07:01:25.360Z,10.57
2023-03-19T07:02:25.247Z,10.60
2023-03-19T07:03:25.251Z,10.62
2023-03-19T07:04:25.220Z,10.62
2023-03-19T07:05:25.215Z,10.63
2023-03-19T07:06:25.183Z,10.69
2023-03-19T07:07:25.175Z,10.75
2023-03-19T07:08:25.195Z,10.78
2023-03-19T07:09:25.158Z,10.84
2023-03-19T07:10:25.138Z,10.90
2023-03-19T07:11:25.137Z,10.93
2023-03-19T07:12:25.117Z,10.93
2023-03-19T07:13:25.132Z,10.91
2023-03-19T07:14:25.104Z,10.81
2023-03-19T07:15:25.089Z,10.80
2023-03-19T07:16:25.122Z,10.80
2023-03-19T07:17:25.072Z,10.76
2023-03-19T07:18:25.070Z,10.78
2023-03-19T07:19:25.042Z,10.84
2023-03-19T07:20:25.028Z,10.86
2023-03-19T07:21:25.024Z,10.81
2023-03-19T07:22:25.026Z,10.84
2023-03-19T07:23:25.019Z,10.84
2023-03-19T07:24:24.983Z,10.86
2023-03-19T07:25:24.973Z,10.91
2023-03-19T07:26:24.963Z,10.95
2023-03-19T07:27:24.958Z,11.02
2023-03-19T07:28:24.963Z,11.06
2023-03-19T07:29:24.958Z,11.09
2023-03-19T07:30:24.919Z,11.16
2023-03-19T07:31:24.987Z,11.23
2023-03-19T07:32:24.900Z,11.26
2023-03-19T07:33:24.913Z,11.33
2023-03-19T07:34:24.886Z,11.35
2023-03-19T07:35:24.935Z,11.39
2023-03-19T07:36:24.845Z,11.44
2023-03-19T07:37:24.848Z,11.46
2023-03-19T07:38:24.824Z,11.44
2023-03-19T07:39:24.822Z,11.46
2023-03-19T07:40:24.832Z,11.48
2023-03-19T07:41:24.799Z,11.45
2023-03-19T07:42:24.798Z,11.48
2023-03-19T07:43:24.780Z,11.51
2023-03-19T07:44:24.774Z,11.51
2023-03-19T07:45:24.758Z,11.41
2023-03-19T07:46:24.766Z,11.44
2023-03-19T07:47:29.292Z,11.56
2023-03-19T07:48:24.710Z,11.66
2023-03-19T07:49:24.706Z,11.77
2023-03-19T07:50:24.694Z,11.84
2023-03-19T07:51:24.700Z,11.81
2023-03-19T07:52:24.696Z,11.81
2023-03-19T07:53:24.670Z,11.88
2023-03-19T07:54:24.654Z,11.93
2023-03-19T07:55:24.644Z,11.88
2023-03-19T07:56:24.620Z,11.96
2023-03-19T07:57:24.645Z,12.00
2023-03-19T07:58:24.601Z,12.04
2023-03-19T07:59:24.593Z,12.12
2023-03-19T08:00:24.582Z,12.11
2023-03-19T08:01:24.584Z,12.13
2023-03-19T08:02:24.588Z,12.13
2023-03-19T08:03:25.032Z,12.05
2023-03-19T08:04:24.576Z,12.16
2023-03-19T08:05:24.526Z,12.30
2023-03-19T08:06:24.506Z,12.41
2023-03-19T08:07:24.713Z,12.44
2023-03-19T08:08:24.490Z,12.30
2023-03-19T08:09:24.508Z,12.37
2023-03-19T08:10:24.468Z,12.48
2023-03-19T08:11:24.468Z,12.49
2023-03-19T08:12:24.446Z,12.51
2023-03-19T08:13:24.436Z,12.55
2023-03-19T08:14:24.455Z,12.55
2023-03-19T08:15:24.422Z,12.62
2023-03-19T08:16:24.424Z,12.51
2023-03-19T08:17:24.401Z,12.51
2023-03-19T08:18:24.373Z,12.58
2023-03-19T08:19:24.368Z,12.62
2023-03-19T08:20:24.381Z,12.63
2023-03-19T08:21:24.409Z,12.61
2023-03-19T08:22:24.354Z,12.66
2023-03-19T08:23:24.330Z,12.61
2023-03-19T08:24:24.305Z,12.61
2023-03-19T08:25:24.301Z,12.59
2023-03-19T08:26:24.318Z,12.40
2023-03-19T08:27:24.279Z,12.37
2023-03-19T08:28:24.264Z,12.43
2023-03-19T08:29:24.258Z,12.49
2023-03-19T08:30:24.266Z,12.37
2023-03-19T08:31:24.278Z,12.36
2023-03-19T08:32:24.220Z,12.38
2023-03-19T08:33:24.219Z,12.34
2023-03-19T08:34:24.196Z,12.37
2023-03-19T08:35:24.186Z,12.40
2023-03-19T08:36:24.176Z,12.36
2023-03-19T08:37:24.191Z,12.43
2023-03-19T08:38:24.179Z,12.58
2023-03-19T08:39:24.165Z,12.76
2023-03-19T08:40:24.137Z,12.81
2023-03-19T08:41:24.140Z,12.88
2023-03-19T08:42:24.128Z,12.96
2023-03-19T08:43:24.099Z,13.03
2023-03-19T08:44:24.085Z,13.01
2023-03-19T08:45:24.079Z,13.13
2023-03-19T08:46:24.395Z,13.19
2023-03-19T08:47:24.085Z,13.19
2023-03-19T08:48:24.038Z,13.16
2023-03-19T08:49:24.031Z,13.19
2023-03-19T08:50:24.013Z,12.99
2023-03-19T08:51:24.003Z,12.77
2023-03-19T08:52:23.993Z,12.70
2023-03-19T08:53:24.015Z,12.70
2023-03-19T08:54:23.974Z,12.77
2023-03-19T08:55:23.966Z,12.85
2023-03-19T08:56:23.949Z,12.88
2023-03-19T08:57:23.940Z,12.98
2023-03-19T08:58:23.929Z,13.10
2023-03-19T08:59:23.938Z,13.17
2023-03-19T09:00:23.912Z,13.24
2023-03-19T09:01:23.948Z,13.14
2023-03-19T09:02:23.886Z,13.17
2023-03-19T09:03:23.864Z,13.16
2023-03-19T09:04:24.222Z,13.32
2023-03-19T09:05:23.870Z,13.48
2023-03-19T09:06:23.839Z,13.57
2023-03-19T09:07:23.821Z,13.54
2023-03-19T09:08:23.815Z,13.63
2023-03-19T09:09:23.803Z,13.68
2023-03-19T09:10:23.823Z,13.73
2023-03-19T09:11:23.817Z,13.75
2023-03-19T09:12:23.765Z,13.50
2023-03-19T09:13:23.765Z,13.47
2023-03-19T09:14:23.826Z,13.47
2023-03-19T09:15:23.733Z,13.54
2023-03-19T09:16:23.818Z,13.61
2023-03-19T09:17:23.713Z,13.61
2023-03-19T09:18:23.708Z,13.62
2023-03-19T09:19:23.766Z,13.68
2023-03-19T09:20:23.719Z,13.71
2023-03-19T09:21:23.664Z,13.65
2023-03-19T09:22:23.699Z,13.61
2023-03-19T09:23:23.645Z,13.53
2023-03-19T09:24:23.649Z,13.27
2023-03-19T09:25:23.638Z,13.14
2023-03-19T09:26:23.614Z,13.17
2023-03-19T09:27:23.633Z,13.17
2023-03-19T09:28:23.608Z,13.17
2023-03-19T09:29:23.569Z,13.10
2023-03-19T09:30:23.623Z,13.06
2023-03-19T09:31:23.578Z,12.88
2023-03-19T09:32:23.546Z,12.81
2023-03-19T09:33:23.560Z,12.79
2023-03-19T09:34:23.532Z,12.77
2023-03-19T09:35:23.509Z,12.79
2023-03-19T09:36:23.510Z,12.70
2023-03-19T09:37:23.492Z,12.71
2023-03-19T09:38:23.489Z,12.76
2023-03-19T09:39:23.490Z,12.77
2023-03-19T09:40:23.458Z,12.76
2023-03-19T09:41:23.439Z,12.76
2023-03-19T09:42:23.422Z,12.85
2023-03-19T09:43:23.411Z,12.92
2023-03-19T09:44:23.422Z,13.07
2023-03-19T09:45:23.384Z,13.13
2023-03-19T09:46:23.450Z,13.28
2023-03-19T09:47:23.381Z,13.43
2023-03-19T09:48:23.358Z,13.38
2023-03-19T09:49:23.392Z,13.36
2023-03-19T09:50:23.349Z,13.48
2023-03-19T09:51:23.314Z,13.51
2023-03-19T09:52:23.319Z,13.61
2023-03-19T09:53:23.318Z,13.59
2023-03-19T09:54:23.302Z,13.44
2023-03-19T09:55:23.307Z,13.38
2023-03-19T09:56:23.272Z,13.35
2023-03-19T09:59:47.710Z,13.73
2023-03-19T10:00:48.668Z,13.72
2023-03-19T10:01:48.720Z,13.94
2023-03-19T10:02:48.643Z,14.01
2023-03-19T10:03:48.679Z,13.84
2023-03-19T10:04:48.662Z,13.73
2023-03-19T10:05:48.677Z,13.71
2023-03-19T10:06:48.599Z,13.66
2023-03-19T10:07:48.596Z,13.65
2023-03-19T10:08:48.600Z,13.59
2023-03-19T10:09:48.567Z,13.62
2023-03-19T10:10:48.591Z,13.65
2023-03-19T10:11:48.560Z,13.66
2023-03-19T10:12:48.541Z,13.54
2023-03-19T10:13:48.525Z,13.36
2023-03-19T10:14:48.513Z,13.32
2023-03-19T10:15:48.587Z,13.27
2023-03-19T10:16:48.516Z,13.28
2023-03-19T10:17:48.490Z,13.22
2023-03-19T10:18:48.686Z,13.25
2023-03-19T10:19:48.462Z,13.38
2023-03-19T10:20:48.441Z,13.46
2023-03-19T10:21:48.438Z,13.50
2023-03-19T10:22:48.442Z,13.57
2023-03-19T10:23:48.441Z,13.57
2023-03-19T10:24:48.394Z,13.55
2023-03-19T10:25:48.388Z,13.54
2023-03-19T10:26:48.379Z,13.59
2023-03-19T10:27:48.394Z,13.66
2023-03-19T10:28:48.364Z,13.76
2023-03-19T10:29:48.352Z,13.84
2023-03-19T10:30:48.337Z,13.93
2023-03-19T10:31:48.381Z,14.05
2023-03-19T10:32:48.341Z,14.13
2023-03-19T10:33:48.347Z,14.27
2023-03-19T10:34:48.288Z,14.31
2023-03-19T10:35:48.307Z,14.20
2023-03-19T10:36:48.266Z,14.11
2023-03-19T10:37:48.257Z,13.96
2023-03-19T10:38:48.250Z,13.96
2023-03-19T10:39:48.265Z,13.93
2023-03-19T10:40:48.220Z,14.05
2023-03-19T10:41:48.229Z,14.02
2023-03-19T10:42:48.194Z,14.04
2023-03-19T10:43:48.190Z,13.96
2023-03-19T10:44:48.182Z,13.99
2023-03-19T10:45:48.402Z,14.06
2023-03-19T10:46:48.161Z,14.17
2023-03-19T10:47:48.157Z,14.35
2023-03-19T10:48:48.131Z,14.48
2023-03-19T10:49:48.125Z,14.59
2023-03-19T10:50:48.111Z,14.67
2023-03-19T10:51:48.139Z,14.57
2023-03-19T10:52:48.085Z,14.34
2023-03-19T10:53:48.086Z,14.26
2023-03-19T10:54:48.071Z,14.38
2023-03-19T10:55:48.068Z,14.49
2023-03-19T10:56:48.090Z,14.45
2023-03-19T10:57:48.052Z,14.24
2023-03-19T10:58:48.029Z,14.34
2023-03-19T10:59:48.020Z,14.46
2023-03-19T11:00:48.058Z,14.60
2023-03-19T11:01:47.994Z,14.69
2023-03-19T11:02:48.009Z,14.75
2023-03-19T11:03:47.991Z,14.75
2023-03-19T11:04:47.960Z,14.80
2023-03-19T11:05:47.948Z,14.63
2023-03-19T11:06:47.950Z,14.61
2023-03-19T11:07:47.922Z,14.78
2023-03-19T11:08:47.933Z,14.91
2023-03-19T11:09:47.906Z,14.94
2023-03-19T11:10:47.903Z,14.97
2023-03-19T11:11:50.537Z,14.78
2023-03-19T11:12:47.871Z,14.59
2023-03-19T11:13:47.896Z,14.57
2023-03-19T11:14:47.883Z,14.64
2023-03-19T11:15:47.856Z,14.90
2023-03-19T11:16:47.845Z,15.15
2023-03-19T11:17:47.825Z,15.30
2023-03-19T11:18:47.823Z,15.43
2023-03-19T11:19:47.792Z,15.55
2023-03-19T11:20:47.807Z,15.46
2023-03-19T11:21:47.767Z,15.41
2023-03-19T11:22:47.771Z,15.30
2023-03-19T11:23:47.746Z,15.31
2023-03-19T11:24:47.726Z,15.40
2023-03-19T11:25:47.753Z,15.38
2023-03-19T11:26:47.723Z,15.30
2023-03-19T11:27:47.704Z,15.09
2023-03-19T11:28:47.711Z,15.25
2023-03-19T11:29:47.683Z,15.23
2023-03-19T11:30:47.657Z,15.20
2023-03-19T11:31:47.717Z,15.27
2023-03-19T11:32:47.702Z,15.35
2023-03-19T11:33:47.636Z,15.35
2023-03-19T11:34:47.612Z,15.30
2023-03-19T11:35:47.626Z,15.28
2023-03-19T11:36:47.591Z,15.27
2023-03-19T11:37:47.589Z,15.44
2023-03-19T11:38:47.590Z,15.56
2023-03-19T11:39:47.561Z,15.58
2023-03-19T11:40:47.552Z,15.43
2023-03-19T11:41:47.549Z,15.40
2023-03-19T11:42:47.525Z,15.41
2023-03-19T11:43:47.551Z,15.55
2023-03-19T11:44:47.520Z,15.73
2023-03-19T11:45:47.624Z,15.85
2023-03-19T11:46:47.499Z,15.98
2023-03-19T11:47:47.485Z,16.13
2023-03-19T11:48:47.490Z,16.16
2023-03-19T11:49:47.473Z,16.34
2023-03-19T11:50:48.374Z,16.55
2023-03-19T11:51:47.434Z,16.59
2023-03-19T11:52:47.418Z,16.50
2023-03-19T11:53:47.405Z,16.47
2023-03-19T11:54:47.413Z,16.44
2023-03-19T11:55:47.415Z,16.52
2023-03-19T11:56:47.376Z,16.42
2023-03-19T11:57:47.363Z,16.17
2023-03-19T11:58:47.357Z,16.16
2023-03-19T11:59:47.342Z,16.17
2023-03-19T12:00:47.363Z,16.32
2023-03-19T12:01:47.359Z,16.26
2023-03-19T12:02:47.407Z,15.92
2023-03-19T12:03:47.435Z,15.68
2023-03-19T12:04:47.287Z,15.73
2023-03-19T12:05:47.310Z,15.52
2023-03-19T12:06:47.275Z,15.58
2023-03-19T12:07:47.664Z,15.70
2023-03-19T12:08:47.242Z,15.70
2023-03-19T12:09:47.234Z,15.64
2023-03-19T12:10:47.224Z,15.62
2023-03-19T12:11:47.206Z,15.51
2023-03-19T12:12:47.196Z,15.34
2023-03-19T12:13:47.206Z,15.31
2023-03-19T12:14:47.175Z,15.34
2023-03-19T12:15:47.166Z,15.37
2023-03-19T12:16:47.165Z,15.33
2023-03-19T12:17:47.156Z,15.20
2023-03-19T12:18:47.419Z,15.18
2023-03-19T12:19:47.119Z,15.16
2023-03-19T12:20:47.116Z,15.09
2023-03-19T12:21:47.095Z,15.00
2023-03-19T12:22:47.100Z,14.85
2023-03-19T12:23:47.072Z,14.72
2023-03-19T12:24:47.524Z,14.66
2023-03-19T12:25:47.064Z,14.48
2023-03-19T12:26:47.064Z,14.44
2023-03-19T12:27:47.032Z,14.46
2023-03-19T12:28:47.022Z,14.42
2023-03-19T12:29:47.005Z,14.46
2023-03-19T12:30:47.411Z,14.48
2023-03-19T12:31:46.981Z,14.57
2023-03-19T12:32:46.994Z,14.66
2023-03-19T12:33:46.958Z,14.74
2023-03-19T12:34:46.950Z,14.61
2023-03-19T12:35:46.938Z,14.69
2023-03-19T12:36:47.216Z,14.79
2023-03-19T12:37:46.919Z,14.93
2023-03-19T12:38:46.909Z,14.83
2023-03-19T12:39:46.886Z,14.95
2023-03-19T12:40:46.873Z,15.12
2023-03-19T12:41:46.880Z,15.12
2023-03-19T12:42:47.073Z,15.22
2023-03-19T12:43:46.840Z,15.34
2023-03-19T12:44:46.838Z,15.27
2023-03-19T12:45:46.816Z,15.05
2023-03-19T12:46:46.834Z,15.00
2023-03-19T12:47:46.807Z,14.80
2023-03-19T12:48:46.806Z,14.75
2023-03-19T12:49:46.782Z,14.79
2023-03-19T12:50:46.776Z,14.75
2023-03-19T12:51:46.759Z,14.71
2023-03-19T12:52:46.761Z,14.72
2023-03-19T12:53:46.795Z,14.64
2023-03-19T12:54:46.788Z,14.67
2023-03-19T12:55:46.707Z,14.66
2023-03-19T12:56:46.700Z,14.54
2023-03-19T12:57:46.682Z,14.46
2023-03-19T12:58:46.672Z,14.46
2023-03-19T12:59:46.706Z,14.48
2023-03-19T13:00:46.652Z,14.60
2023-03-19T13:01:46.794Z,14.52
2023-03-19T13:02:46.670Z,14.53
2023-03-19T13:03:46.615Z,14.46
2023-03-19T13:04:46.749Z,14.42
2023-03-19T13:05:46.618Z,14.48
2023-03-19T13:06:46.599Z,14.66
2023-03-19T13:07:46.569Z,14.69